Time;durP1;ratioP1;P1;durP2;ratioP2;P2;SDS_P1;SDS_P2;PMS_P1;PMS_P2;Temp;Humidity;BMP_temperature;BMP_pressure;BME280_temperature;BME280_humidity;BME280_pressure;Samples;Min_cycle;Max_cycle;Signal;HPM_P1;HPM_P2
2021/12/11 00:01:18;;;;;;;;;;;1.70;53.30;;;;;;6198087;23;19953;-91
2021/12/11 00:03:46;;;;;;;;;;;1.70;53.50;;;;;;6197599;23;19915;-92
2021/12/11 00:06:17;;;;;;;;;;;1.70;53.60;;;;;;6196627;23;19904;-92
2021/12/11 00:08:44;;;;;;;;;;;1.80;53.80;;;;;;6199825;23;19915;-91
2021/12/11 00:11:16;;;;;;;;;;;1.80;54.10;;;;;;6198026;23;20496;-93
2021/12/11 00:13:42;;;;;;;;;;;1.90;54.20;;;;;;6198979;23;19978;-90
2021/12/11 00:16:10;;;;;;;;;;;2.00;54.20;;;;;;6223149;23;19908;-92
2021/12/11 00:18:36;;;;;;;;;;;2.10;54.30;;;;;;6222300;23;19923;-92
2021/12/11 00:21:04;;;;;;;;;;;2.20;54.20;;;;;;6195585;23;19931;-90
2021/12/11 00:23:39;;;;;;;;;;;2.30;54.20;;;;;;6195619;23;19919;-92
2021/12/11 00:26:06;;;;;;;;;;;2.30;54.20;;;;;;6194331;23;19904;-91
2021/12/11 00:28:32;;;;;;;;;;;2.40;54.20;;;;;;6193931;23;19912;-92
2021/12/11 00:30:57;;;;;;;;;;;2.40;54.20;;;;;;6193877;23;19908;-89
2021/12/11 00:33:25;;;;;;;;;;;2.40;54.10;;;;;;6220278;23;19919;-90
2021/12/11 00:35:52;;;;;;;;;;;2.50;54.00;;;;;;6193248;23;19915;-90
2021/12/11 00:38:24;;;;;;;;;;;2.50;53.90;;;;;;6221381;23;19916;-89
2021/12/11 00:40:51;;;;;;;;;;;2.50;53.70;;;;;;6193756;23;20309;-90
2021/12/11 00:43:21;;;;;;;;;;;2.50;53.60;;;;;;6194009;23;19912;-89
2021/12/11 00:45:48;;;;;;;;;;;2.50;53.40;;;;;;6194213;23;19904;-90
2021/12/11 00:48:17;;;;;;;;;;;2.40;53.20;;;;;;6194077;23;19918;-90
2021/12/11 00:50:53;;;;;;;;;;;2.30;53.10;;;;;;6194854;23;19904;-90
2021/12/11 00:53:27;;;;;;;;;;;2.30;53.00;;;;;;6194813;23;19908;-90
2021/12/11 00:55:54;;;;;;;;;;;2.20;53.00;;;;;;6194607;23;19908;-91
2021/12/11 00:58:23;;;;;;;;;;;2.10;53.00;;;;;;6195624;23;19927;-89
2021/12/11 01:00:51;;;;;;;;;;;2.10;53.00;;;;;;6194428;23;19904;-90
2021/12/11 01:03:20;;;;;;;;;;;2.00;53.10;;;;;;6194452;23;19908;-91
2021/12/11 01:05:46;;;;;;;;;;;2.00;53.10;;;;;;6219924;23;19904;-90
2021/12/11 01:08:19;;;;;;;;;;;2.00;53.10;;;;;;6192757;23;19927;-91
2021/12/11 01:10:46;;;;;;;;;;;1.90;53.10;;;;;;6193930;23;19911;-90
2021/12/11 01:13:15;;;;;;;;;;;1.90;53.00;;;;;;6194041;23;19952;-90
2021/12/11 01:15:45;;;;;;;;;;;1.80;52.90;;;;;;6193920;23;19908;-90
2021/12/11 01:20:56;;;;;;;;;;;1.70;52.80;;;;;;6222031;23;19904;-91
2021/12/11 01:26:00;;;;;;;;;;;1.70;53.00;;;;;;6231112;23;19928;-90
2021/12/11 01:28:26;;;;;;;;;;;1.60;53.10;;;;;;6195739;23;19987;-92
2021/12/11 01:30:52;;;;;;;;;;;1.60;53.20;;;;;;6195833;23;19912;-93
2021/12/11 01:33:17;;;;;;;;;;;1.60;53.10;;;;;;6222099;23;19904;-92
2021/12/11 01:35:43;;;;;;;;;;;1.50;53.10;;;;;;6222330;23;19916;-90
2021/12/11 01:38:11;;;;;;;;;;;1.50;53.20;;;;;;6194822;23;19983;-91
2021/12/11 01:40:36;;;;;;;;;;;1.50;53.30;;;;;;6194047;23;20351;-90
2021/12/11 01:43:04;;;;;;;;;;;1.50;53.20;;;;;;6193287;23;19904;-90
2021/12/11 01:45:31;;;;;;;;;;;1.50;53.10;;;;;;6193061;23;19919;-90
2021/12/11 01:47:56;;;;;;;;;;;1.50;53.10;;;;;;6220115;23;20285;-90
2021/12/11 01:50:40;;;;;;;;;;;1.40;53.00;;;;;;6219893;23;19908;-90
2021/12/11 01:53:11;;;;;;;;;;;1.40;53.00;;;;;;6194632;23;20300;-90
2021/12/11 01:55:45;;;;;;;;;;;1.40;53.00;;;;;;6195152;23;19978;-88
2021/12/11 01:58:13;;;;;;;;;;;1.40;53.00;;;;;;6196119;23;19931;-92
2021/12/11 02:00:44;;;;;;;;;;;1.40;53.00;;;;;;6224000;23;19912;-92
2021/12/11 02:03:12;;;;;;;;;;;1.30;52.90;;;;;;6197182;23;19911;-92
2021/12/11 02:05:39;;;;;;;;;;;1.30;53.00;;;;;;6223873;23;19927;-92
2021/12/11 02:08:06;;;;;;;;;;;1.30;53.00;;;;;;6224300;23;20560;-91
2021/12/11 02:10:42;;;;;;;;;;;1.30;53.00;;;;;;6223178;23;19935;-91
2021/12/11 02:13:09;;;;;;;;;;;1.30;52.90;;;;;;6196306;23;19994;-90
2021/12/11 02:15:38;;;;;;;;;;;1.30;52.90;;;;;;6195103;23;19916;-92
2021/12/11 02:18:10;;;;;;;;;;;1.30;52.90;;;;;;6196310;23;19956;-92
2021/12/11 02:20:49;;;;;;;;;;;1.30;53.00;;;;;;6222673;23;19911;-91
2021/12/11 02:23:15;;;;;;;;;;;1.30;53.10;;;;;;6196466;23;19912;-93
2021/12/11 02:25:46;;;;;;;;;;;1.20;53.20;;;;;;6198474;23;19908;-92
2021/12/11 02:28:21;;;;;;;;;;;1.30;53.40;;;;;;6197656;23;19956;-91
2021/12/11 02:30:54;;;;;;;;;;;1.30;53.60;;;;;;6223795;23;19916;-93
2021/12/11 02:33:22;;;;;;;;;;;1.30;53.70;;;;;;6224762;23;19903;-93
2021/12/11 02:35:48;;;;;;;;;;;1.40;53.90;;;;;;6198176;23;20003;-91
2021/12/11 02:38:18;;;;;;;;;;;1.50;54.00;;;;;;6197730;23;19916;-92
2021/12/11 02:40:49;;;;;;;;;;;1.60;54.10;;;;;;6197738;23;19919;-92
2021/12/11 02:43:34;;;;;;;;;;;1.70;54.30;;;;;;6198253;23;19954;-92
2021/12/11 02:45:59;;;;;;;;;;;1.80;54.40;;;;;;6199907;23;19927;-92
2021/12/11 02:48:28;;;;;;;;;;;2.00;54.50;;;;;;6198950;23;19955;-91
2021/12/11 02:50:53;;;;;;;;;;;2.10;54.60;;;;;;6197911;23;20335;-92
2021/12/11 02:53:33;;;;;;;;;;;2.30;54.60;;;;;;6197269;23;20003;-92
2021/12/11 02:56:12;;;;;;;;;;;2.40;54.60;;;;;;6195682;23;20309;-90
2021/12/11 02:58:40;;;;;;;;;;;2.50;54.70;;;;;;6222078;23;19912;-91
2021/12/11 03:01:08;;;;;;;;;;;2.70;54.80;;;;;;6221378;23;20268;-90
2021/12/11 03:03:37;;;;;;;;;;;2.90;54.80;;;;;;6194141;23;20251;-89
2021/12/11 03:06:16;;;;;;;;;;;3.00;54.80;;;;;;6221038;23;19982;-90
2021/12/11 03:08:41;;;;;;;;;;;3.10;54.80;;;;;;6194071;23;20222;-89
2021/12/11 03:11:11;;;;;;;;;;;3.30;54.90;;;;;;6194459;23;19911;-90
2021/12/11 03:13:39;;;;;;;;;;;3.40;54.80;;;;;;6193471;23;19912;-90
2021/12/11 03:16:06;;;;;;;;;;;3.50;54.80;;;;;;6194826;23;19919;-90
2021/12/11 03:18:32;;;;;;;;;;;3.60;54.80;;;;;;6194802;23;19916;-91
2021/12/11 03:20:58;;;;;;;;;;;3.70;54.70;;;;;;6221466;23;19915;-91
2021/12/11 03:23:24;;;;;;;;;;;3.80;54.60;;;;;;6222197;23;20231;-91
2021/12/11 03:25:49;;;;;;;;;;;3.90;54.50;;;;;;6220927;23;19982;-91
2021/12/11 03:28:17;;;;;;;;;;;4.00;54.50;;;;;;6194092;23;19951;-91
2021/12/11 03:30:46;;;;;;;;;;;4.00;54.40;;;;;;6195809;23;19911;-91
2021/12/11 03:33:13;;;;;;;;;;;4.10;54.40;;;;;;6220050;23;19930;-91
2021/12/11 03:35:39;;;;;;;;;;;4.10;54.40;;;;;;6221794;23;19947;-91
2021/12/11 03:38:05;;;;;;;;;;;4.10;54.30;;;;;;6221937;23;20272;-92
2021/12/11 03:40:32;;;;;;;;;;;4.10;54.30;;;;;;6221666;23;19912;-90
2021/12/11 03:42:59;;;;;;;;;;;4.20;54.20;;;;;;6220079;23;19908;-90
2021/12/11 03:45:27;;;;;;;;;;;4.20;54.20;;;;;;6193807;23;19908;-89
2021/12/11 03:47:57;;;;;;;;;;;4.20;54.30;;;;;;6192237;23;20228;-90
2021/12/11 03:50:24;;;;;;;;;;;4.20;54.30;;;;;;6193731;23;19914;-91
2021/12/11 03:52:50;;;;;;;;;;;4.30;54.30;;;;;;6193755;23;19908;-90
2021/12/11 03:55:19;;;;;;;;;;;4.30;54.30;;;;;;6192970;23;20312;-90
2021/12/11 03:57:45;;;;;;;;;;;4.30;54.30;;;;;;6193447;23;19986;-90
2021/12/11 04:00:18;;;;;;;;;;;4.30;54.30;;;;;;6220750;23;20343;-90
2021/12/11 04:02:45;;;;;;;;;;;4.30;54.30;;;;;;6192792;23;19911;-91
2021/12/11 04:05:11;;;;;;;;;;;4.40;54.30;;;;;;6193492;23;19908;-91
2021/12/11 04:07:41;;;;;;;;;;;4.40;54.30;;;;;;6192692;23;19907;-91
2021/12/11 04:10:07;;;;;;;;;;;4.40;54.30;;;;;;6192198;23;19912;-90
2021/12/11 04:12:33;;;;;;;;;;;4.30;54.20;;;;;;6193960;23;19908;-90
2021/12/11 04:14:58;;;;;;;;;;;4.30;54.20;;;;;;6193607;23;20292;-91
2021/12/11 04:17:25;;;;;;;;;;;4.20;54.20;;;;;;6193306;23;19962;-91
2021/12/11 04:19:52;;;;;;;;;;;4.20;54.20;;;;;;6192939;23;19912;-90
2021/12/11 04:22:17;;;;;;;;;;;4.20;54.30;;;;;;6193307;23;19914;-90
2021/12/11 04:24:44;;;;;;;;;;;4.10;54.40;;;;;;6219961;23;19912;-90
2021/12/11 04:27:12;;;;;;;;;;;4.20;54.50;;;;;;6220855;23;19919;-90
2021/12/11 04:29:38;;;;;;;;;;;4.20;54.50;;;;;;6193604;23;20313;-90
2021/12/11 04:32:04;;;;;;;;;;;4.20;54.60;;;;;;6193595;23;19915;-90
2021/12/11 04:34:31;;;;;;;;;;;4.20;54.60;;;;;;6220564;23;19947;-89
2021/12/11 04:37:03;;;;;;;;;;;4.20;54.60;;;;;;6193195;23;19927;-91
2021/12/11 04:39:34;;;;;;;;;;;4.20;54.60;;;;;;6194492;23;19912;-90
2021/12/11 04:42:07;;;;;;;;;;;4.30;54.70;;;;;;6218953;23;19958;-91
2021/12/11 04:44:37;;;;;;;;;;;4.30;54.70;;;;;;6220994;23;20271;-92
2021/12/11 04:47:05;;;;;;;;;;;4.30;54.70;;;;;;6195280;23;20220;-91
2021/12/11 04:49:38;;;;;;;;;;;4.40;54.70;;;;;;6221160;23;19908;-92
2021/12/11 04:52:12;;;;;;;;;;;4.50;54.70;;;;;;6194597;23;19915;-91
2021/12/11 05:11:00;;;;;;;;;;;4.60;55.50;;;;;;6220409;23;19911;-90
2021/12/11 05:13:28;;;;;;;;;;;4.70;55.60;;;;;;6193295;23;19916;-91
2021/12/11 05:15:56;;;;;;;;;;;4.80;55.60;;;;;;6193975;23;20399;-90
2021/12/11 05:18:23;;;;;;;;;;;4.90;55.60;;;;;;6192837;23;19963;-91
2021/12/11 05:20:50;;;;;;;;;;;4.90;55.50;;;;;;6192512;23;19911;-91
2021/12/11 05:23:16;;;;;;;;;;;5.00;55.40;;;;;;6219999;23;19908;-91
2021/12/11 05:25:42;;;;;;;;;;;5.10;55.40;;;;;;6219533;23;19919;-91
2021/12/11 05:28:08;;;;;;;;;;;5.10;55.30;;;;;;6195087;23;19940;-91
2021/12/11 05:30:36;;;;;;;;;;;5.20;55.30;;;;;;6195776;23;20509;-90
2021/12/11 05:33:01;;;;;;;;;;;5.30;55.30;;;;;;6222580;23;19935;-90
2021/12/11 05:35:30;;;;;;;;;;;5.30;55.20;;;;;;6194911;23;19896;-90
2021/12/11 05:37:56;;;;;;;;;;;5.30;55.20;;;;;;6194598;23;19994;-90
2021/12/11 05:40:22;;;;;;;;;;;5.40;55.20;;;;;;6221109;23;19908;-89
2021/12/11 05:42:49;;;;;;;;;;;5.50;55.20;;;;;;6220273;23;19934;-90
2021/12/11 05:45:14;;;;;;;;;;;5.50;55.20;;;;;;6220237;23;19961;-90
2021/12/11 05:47:40;;;;;;;;;;;5.50;55.20;;;;;;6194222;23;20316;-90
2021/12/11 05:50:08;;;;;;;;;;;5.60;55.10;;;;;;6193547;23;19919;-91
2021/12/11 05:52:33;;;;;;;;;;;5.60;55.10;;;;;;6194033;23;20289;-90
2021/12/11 05:54:59;;;;;;;;;;;5.70;55.10;;;;;;6193856;23;20026;-90
2021/12/11 05:57:26;;;;;;;;;;;5.70;55.10;;;;;;6194024;23;19912;-90
2021/12/11 05:59:52;;;;;;;;;;;5.70;55.00;;;;;;6194982;23;19975;-91
2021/12/11 06:02:25;;;;;;;;;;;5.70;55.10;;;;;;6220577;23;19915;-91
2021/12/11 06:04:52;;;;;;;;;;;5.70;55.20;;;;;;6195591;23;20366;-91
2021/12/11 06:07:19;;;;;;;;;;;5.70;55.30;;;;;;6220742;23;19911;-91
2021/12/11 06:09:46;;;;;;;;;;;5.80;55.20;;;;;;6221373;23;19946;-91
2021/12/11 06:12:13;;;;;;;;;;;5.80;55.20;;;;;;6194739;23;19911;-91
2021/12/11 06:14:39;;;;;;;;;;;5.80;55.20;;;;;;6194435;23;19904;-91
2021/12/11 06:17:06;;;;;;;;;;;5.80;55.20;;;;;;6220034;23;19935;-91
2021/12/11 06:19:33;;;;;;;;;;;5.90;55.20;;;;;;6195859;23;19904;-92
2021/12/11 06:21:58;;;;;;;;;;;5.90;55.20;;;;;;6194215;23;19904;-91
2021/12/11 06:24:25;;;;;;;;;;;5.80;55.20;;;;;;6196093;23;19952;-91
2021/12/11 06:26:51;;;;;;;;;;;5.90;55.10;;;;;;6194313;23;19911;-91
2021/12/11 06:29:16;;;;;;;;;;;5.80;55.10;;;;;;6221995;23;19916;-90
2021/12/11 06:31:44;;;;;;;;;;;5.80;55.10;;;;;;6198995;23;19915;-91
2021/12/11 06:34:10;;;;;;;;;;;5.80;55.10;;;;;;6197437;23;19912;-91
2021/12/11 06:36:35;;;;;;;;;;;5.80;55.00;;;;;;6196636;23;19907;-91
2021/12/11 06:39:04;;;;;;;;;;;5.70;55.00;;;;;;6222508;23;20272;-92
2021/12/11 06:41:32;;;;;;;;;;;5.70;54.90;;;;;;6221899;23;19908;-91
2021/12/11 06:43:57;;;;;;;;;;;5.60;54.90;;;;;;6196323;23;19912;-88
2021/12/11 06:46:23;;;;;;;;;;;5.50;54.80;;;;;;6192826;23;19904;-89
2021/12/11 06:48:49;;;;;;;;;;;5.50;55.00;;;;;;6220668;23;19912;-90
2021/12/11 06:51:15;;;;;;;;;;;5.40;55.10;;;;;;6193477;23;19908;-90
2021/12/11 06:53:43;;;;;;;;;;;5.30;55.30;;;;;;6219142;23;19912;-90
2021/12/11 06:56:09;;;;;;;;;;;5.20;55.50;;;;;;6220517;23;19915;-90
2021/12/11 06:58:35;;;;;;;;;;;5.10;55.70;;;;;;6193972;23;19987;-90
2021/12/11 07:01:02;;;;;;;;;;;5.10;55.90;;;;;;6220337;23;20339;-90
2021/12/11 07:03:27;;;;;;;;;;;5.00;56.00;;;;;;6192089;23;20044;-90
2021/12/11 07:05:53;;;;;;;;;;;5.00;56.20;;;;;;6220589;23;20344;-90
2021/12/11 07:08:18;;;;;;;;;;;5.00;56.20;;;;;;6195698;23;19923;-90
2021/12/11 07:10:45;;;;;;;;;;;5.00;56.20;;;;;;6196838;23;19939;-91
2021/12/11 07:13:11;;;;;;;;;;;5.00;56.00;;;;;;6224722;23;19912;-91
2021/12/11 07:15:38;;;;;;;;;;;5.00;55.90;;;;;;6201758;23;19908;-91
2021/12/11 07:18:09;;;;;;;;;;;5.10;55.80;;;;;;6204156;23;19934;-91
2021/12/11 07:20:34;;;;;;;;;;;5.10;55.90;;;;;;6199714;23;19936;-90
2021/12/11 07:23:00;;;;;;;;;;;5.10;55.90;;;;;;6227912;23;19912;-90
2021/12/11 07:25:41;;;;;;;;;;;5.10;55.90;;;;;;6201155;23;19912;-91
2021/12/11 07:28:08;;;;;;;;;;;5.10;55.90;;;;;;6197460;23;19904;-89
2021/12/11 07:30:35;;;;;;;;;;;5.10;55.80;;;;;;6223747;23;19962;-89
2021/12/11 07:33:04;;;;;;;;;;;5.10;55.70;;;;;;6197457;23;20210;-89
2021/12/11 07:35:32;;;;;;;;;;;5.10;55.60;;;;;;6223503;23;19920;-88
2021/12/11 07:37:57;;;;;;;;;;;5.10;55.70;;;;;;6193059;23;19952;-89
2021/12/11 07:40:26;;;;;;;;;;;5.10;55.70;;;;;;6192762;23;19927;-90
2021/12/11 07:42:51;;;;;;;;;;;5.10;55.80;;;;;;6221026;23;19926;-91
2021/12/11 07:45:18;;;;;;;;;;;5.10;55.90;;;;;;6195394;23;19943;-90
2021/12/11 07:47:43;;;;;;;;;;;5.10;56.10;;;;;;6194416;23;19912;-91
2021/12/11 07:50:09;;;;;;;;;;;5.10;56.20;;;;;;6193417;23;19912;-91
2021/12/11 07:52:35;;;;;;;;;;;5.10;56.30;;;;;;6193624;23;19964;-90
2021/12/11 07:55:01;;;;;;;;;;;5.10;56.30;;;;;;6193253;23;19938;-90
2021/12/11 07:57:27;;;;;;;;;;;5.10;56.30;;;;;;6218908;23;19955;-89
2021/12/11 07:59:52;;;;;;;;;;;5.10;56.20;;;;;;6192960;23;19962;-89
2021/12/11 08:02:18;;;;;;;;;;;5.10;56.20;;;;;;6193183;23;19908;-91
2021/12/11 08:04:43;;;;;;;;;;;5.20;56.20;;;;;;6220870;23;19916;-91
2021/12/11 08:07:09;;;;;;;;;;;5.20;56.20;;;;;;6170680;23;19912;-91
2021/12/11 08:09:34;;;;;;;;;;;5.20;56.20;;;;;;6220900;23;19920;-91
2021/12/11 08:12:03;;;;;;;;;;;5.30;56.30;;;;;;6194878;23;20422;-91
2021/12/11 08:14:29;;;;;;;;;;;5.30;56.40;;;;;;6195680;23;19969;-91
2021/12/11 08:16:59;;;;;;;;;;;5.30;56.50;;;;;;6194640;23;19908;-90
2021/12/11 08:19:26;;;;;;;;;;;5.40;56.70;;;;;;6195346;23;20382;-91
2021/12/11 08:21:53;;;;;;;;;;;5.50;56.70;;;;;;6221949;23;20331;-92
2021/12/11 08:24:19;;;;;;;;;;;5.50;56.70;;;;;;6195362;23;19904;-91
2021/12/11 08:26:45;;;;;;;;;;;5.50;56.80;;;;;;6221534;23;19904;-90
2021/12/11 08:29:11;;;;;;;;;;;5.60;56.80;;;;;;6193755;23;19912;-89
2021/12/11 08:31:38;;;;;;;;;;;5.60;56.70;;;;;;6221016;23;19908;-90
2021/12/11 08:34:04;;;;;;;;;;;5.70;57.00;;;;;;6218108;23;19931;-90
2021/12/11 08:36:29;;;;;;;;;;;5.80;57.60;;;;;;6191503;23;19937;-89
2021/12/11 08:38:55;;;;;;;;;;;6.00;57.30;;;;;;6191017;23;19911;-88
2021/12/11 08:41:22;;;;;;;;;;;6.00;57.10;;;;;;6190574;23;19914;-90
2021/12/11 08:43:56;;;;;;;;;;;6.10;57.60;;;;;;6193564;23;19946;-89
2021/12/11 08:46:27;;;;;;;;;;;6.20;57.20;;;;;;6219579;23;19915;-88
2021/12/11 08:48:54;;;;;;;;;;;6.20;56.60;;;;;;6218989;23;20313;-89
2021/12/11 08:51:28;;;;;;;;;;;6.20;56.80;;;;;;6218162;23;19999;-89
2021/12/11 08:53:54;;;;;;;;;;;6.20;57.00;;;;;;6216863;23;19915;-88
2021/12/11 08:56:20;;;;;;;;;;;6.20;57.10;;;;;;6221177;23;19920;-87
2021/12/11 08:58:46;;;;;;;;;;;6.30;57.20;;;;;;6220350;23;19907;-88
2021/12/11 09:01:17;;;;;;;;;;;6.40;57.60;;;;;;6194418;23;19970;-89
2021/12/11 09:03:46;;;;;;;;;;;6.50;57.40;;;;;;6196104;23;19919;-89
2021/12/11 09:06:14;;;;;;;;;;;6.60;57.20;;;;;;6199687;23;19988;-91
2021/12/11 09:08:48;;;;;;;;;;;6.60;57.10;;;;;;6198591;23;19952;-91
2021/12/11 09:11:20;;;;;;;;;;;6.70;57.20;;;;;;6227963;23;19916;-91
2021/12/11 09:13:49;;;;;;;;;;;6.80;57.60;;;;;;6194776;23;19908;-90
2021/12/11 09:16:14;;;;;;;;;;;7.00;57.90;;;;;;6194585;23;19924;-90
2021/12/11 09:18:40;;;;;;;;;;;7.20;58.30;;;;;;6195240;23;19954;-92
2021/12/11 09:21:15;;;;;;;;;;;7.50;58.30;;;;;;6195033;23;20275;-89
2021/12/11 09:23:43;;;;;;;;;;;7.80;58.30;;;;;;6196738;23;19954;-91
2021/12/11 09:26:13;;;;;;;;;;;8.00;58.30;;;;;;6196825;23;19908;-90
2021/12/11 09:28:48;;;;;;;;;;;8.30;58.40;;;;;;6196690;23;19920;-90
2021/12/11 09:31:22;;;;;;;;;;;8.70;58.80;;;;;;6195304;23;19958;-90
2021/12/11 09:33:51;;;;;;;;;;;8.90;59.20;;;;;;6219220;23;19987;-90
2021/12/11 09:36:25;;;;;;;;;;;9.30;59.40;;;;;;6192652;23;19922;-90
2021/12/11 09:38:53;;;;;;;;;;;9.60;59.60;;;;;;6192101;23;19912;-90
2021/12/11 09:41:22;;;;;;;;;;;9.90;60.10;;;;;;6192906;23;19912;-88
2021/12/11 09:44:00;;;;;;;;;;;10.20;60.30;;;;;;6187944;23;19971;-90
2021/12/11 09:46:28;;;;;;;;;;;10.50;60.20;;;;;;6189650;23;19914;-90
2021/12/11 09:48:54;;;;;;;;;;;10.70;60.00;;;;;;6189843;23;19912;-89
2021/12/11 09:51:25;;;;;;;;;;;11.00;60.10;;;;;;6190255;23;19915;-89
2021/12/11 09:53:52;;;;;;;;;;;11.30;59.80;;;;;;6190426;23;19996;-89
2021/12/11 09:56:31;;;;;;;;;;;11.50;58.80;;;;;;6215973;23;19983;-89
2021/12/11 09:58:57;;;;;;;;;;;11.50;58.10;;;;;;6189052;23;19991;-89
2021/12/11 10:01:27;;;;;;;;;;;11.70;57.90;;;;;;6188714;23;19912;-89
2021/12/11 10:04:04;;;;;;;;;;;11.70;58.10;;;;;;6193361;23;19970;-90
2021/12/11 10:06:41;;;;;;;;;;;11.80;58.10;;;;;;6215173;23;20320;-90
2021/12/11 10:09:18;;;;;;;;;;;11.90;57.80;;;;;;6215231;23;19912;-90
2021/12/11 10:11:56;;;;;;;;;;;12.00;58.30;;;;;;6215549;23;19912;-89
2021/12/11 10:14:25;;;;;;;;;;;12.20;58.80;;;;;;6190779;23;19912;-90
2021/12/11 10:16:52;;;;;;;;;;;12.30;58.50;;;;;;6191234;23;19912;-90
2021/12/11 10:19:19;;;;;;;;;;;12.40;58.00;;;;;;6190606;23;19916;-89
2021/12/11 10:21:47;;;;;;;;;;;12.40;57.30;;;;;;6217192;23;19907;-89
2021/12/11 10:24:16;;;;;;;;;;;12.30;56.40;;;;;;6190926;23;19946;-89
2021/12/11 10:26:42;;;;;;;;;;;12.30;56.30;;;;;;6216960;23;19911;-89
2021/12/11 10:29:10;;;;;;;;;;;12.20;56.50;;;;;;6187179;23;19951;-88
2021/12/11 10:31:41;;;;;;;;;;;12.10;55.70;;;;;;6216307;23;19936;-88
2021/12/11 10:34:09;;;;;;;;;;;11.90;55.70;;;;;;6189609;23;20343;-87
2021/12/11 10:36:37;;;;;;;;;;;11.70;55.40;;;;;;6190797;23;19908;-91
2021/12/11 10:39:05;;;;;;;;;;;11.50;55.90;;;;;;6191617;23;19911;-90
2021/12/11 10:41:31;;;;;;;;;;;11.30;55.40;;;;;;6193140;23;19915;-90
2021/12/11 10:44:06;;;;;;;;;;;11.20;55.60;;;;;;6199601;23;19994;-90
2021/12/11 10:46:34;;;;;;;;;;;11.10;55.90;;;;;;6192588;23;20412;-89
2021/12/11 10:49:00;;;;;;;;;;;10.90;56.40;;;;;;6192755;23;19912;-92
2021/12/11 10:51:28;;;;;;;;;;;10.80;56.30;;;;;;6192074;23;19981;-90
2021/12/11 10:53:54;;;;;;;;;;;10.70;56.60;;;;;;6219480;23;19927;-91
2021/12/11 10:56:21;;;;;;;;;;;10.70;57.50;;;;;;6220477;23;20305;-91
2021/12/11 10:58:50;;;;;;;;;;;10.80;58.50;;;;;;6193441;23;19908;-92
2021/12/11 11:01:21;;;;;;;;;;;11.00;58.90;;;;;;6222150;23;19912;-90
2021/12/11 11:03:49;;;;;;;;;;;11.20;58.90;;;;;;6192164;23;19914;-91
2021/12/11 11:06:15;;;;;;;;;;;11.40;58.50;;;;;;6218831;23;19920;-91
2021/12/11 11:08:41;;;;;;;;;;;11.60;58.50;;;;;;6190294;23;19958;-90
2021/12/11 11:11:09;;;;;;;;;;;11.70;58.30;;;;;;6190497;23;19974;-92
2021/12/11 11:13:35;;;;;;;;;;;11.90;57.90;;;;;;6191657;23;19919;-91
2021/12/11 11:16:00;;;;;;;;;;;12.00;57.70;;;;;;6192046;23;19912;-91
2021/12/11 11:18:27;;;;;;;;;;;12.00;56.90;;;;;;6192267;23;19911;-90
2021/12/11 11:20:59;;;;;;;;;;;12.10;56.80;;;;;;6217334;23;19907;-92
2021/12/11 11:23:27;;;;;;;;;;;12.10;57.00;;;;;;6193275;23;19919;-92
2021/12/11 11:25:56;;;;;;;;;;;12.10;57.20;;;;;;6193453;23;19940;-92
2021/12/11 11:28:23;;;;;;;;;;;12.20;57.40;;;;;;6192039;23;19912;-91
2021/12/11 11:30:54;;;;;;;;;;;12.30;57.30;;;;;;6190413;23;19970;-91
2021/12/11 11:33:20;;;;;;;;;;;12.30;56.90;;;;;;6190611;23;19927;-91
2021/12/11 11:35:47;;;;;;;;;;;12.30;57.10;;;;;;6215804;23;19958;-91
2021/12/11 11:38:15;;;;;;;;;;;12.40;56.60;;;;;;6217840;23;19970;-91
2021/12/11 11:40:43;;;;;;;;;;;12.30;56.10;;;;;;6217389;23;19965;-91
2021/12/11 11:43:09;;;;;;;;;;;12.20;56.10;;;;;;6217000;23;19911;-91
2021/12/11 11:45:35;;;;;;;;;;;12.20;56.30;;;;;;6215684;23;19912;-91
2021/12/11 11:48:01;;;;;;;;;;;12.20;55.80;;;;;;6217058;23;19915;-91
2021/12/11 11:50:29;;;;;;;;;;;12.00;55.60;;;;;;6215874;23;19908;-91
2021/12/11 11:52:55;;;;;;;;;;;11.80;55.20;;;;;;6190992;23;19986;-90
2021/12/11 11:55:24;;;;;;;;;;;11.40;54.60;;;;;;6190809;23;19955;-90
2021/12/11 11:57:51;;;;;;;;;;;11.20;55.20;;;;;;6215693;23;20328;-90
2021/12/11 12:00:19;;;;;;;;;;;10.80;55.60;;;;;;6215248;23;19962;-90
2021/12/11 12:02:45;;;;;;;;;;;10.50;55.00;;;;;;6190270;23;19904;-89
2021/12/11 12:05:11;;;;;;;;;;;10.30;55.60;;;;;;6217133;23;19916;-90
2021/12/11 12:07:36;;;;;;;;;;;10.00;55.70;;;;;;6190654;23;19983;-92
2021/12/11 12:10:06;;;;;;;;;;;9.90;55.50;;;;;;6189695;23;19916;-89
2021/12/11 12:12:32;;;;;;;;;;;9.70;55.80;;;;;;6214412;23;19911;-90
2021/12/11 12:14:58;;;;;;;;;;;9.50;56.40;;;;;;6216531;23;20347;-89
2021/12/11 12:17:26;;;;;;;;;;;9.40;56.90;;;;;;6216937;23;19919;-89
2021/12/11 12:19:52;;;;;;;;;;;9.30;57.30;;;;;;6215562;23;19968;-89
2021/12/11 12:22:18;;;;;;;;;;;9.30;58.10;;;;;;6216541;23;19904;-89
2021/12/11 12:24:45;;;;;;;;;;;9.40;58.50;;;;;;6189422;23;19944;-91
2021/12/11 12:27:12;;;;;;;;;;;9.40;58.80;;;;;;6216768;23;19904;-90
2021/12/11 12:29:39;;;;;;;;;;;9.50;58.90;;;;;;6221946;23;19924;-90
2021/12/11 12:32:07;;;;;;;;;;;9.50;58.60;;;;;;6240429;23;19987;-90
2021/12/11 12:34:32;;;;;;;;;;;9.50;58.90;;;;;;6216255;23;19916;-90
2021/12/11 12:36:58;;;;;;;;;;;9.60;59.00;;;;;;6240019;23;19908;-90
2021/12/11 12:39:26;;;;;;;;;;;9.70;59.30;;;;;;6215858;23;19920;-90
2021/12/11 12:42:04;;;;;;;;;;;9.70;58.90;;;;;;6214150;23;19908;-90
2021/12/11 12:44:30;;;;;;;;;;;9.70;58.90;;;;;;6239293;23;20321;-89
2021/12/11 12:46:58;;;;;;;;;;;9.70;59.20;;;;;;6239714;23;19936;-89
2021/12/11 12:49:25;;;;;;;;;;;9.80;59.30;;;;;;6213287;23;20026;-89
2021/12/11 12:51:51;;;;;;;;;;;9.80;59.10;;;;;;6239439;23;19908;-89
2021/12/11 12:54:19;;;;;;;;;;;9.80;59.00;;;;;;6240107;23;19919;-89
2021/12/11 12:57:12;;;;;;;;;;;9.80;58.90;;;;;;6240350;23;19912;-91
2021/12/11 12:59:40;;;;;;;;;;;9.70;58.70;;;;;;6216246;23;19912;-89
2021/12/11 13:02:11;;;;;;;;;;;9.70;58.50;;;;;;6215683;23;19935;-89
2021/12/11 13:04:43;;;;;;;;;;;9.60;58.80;;;;;;6215352;23;19912;-89
2021/12/11 13:07:14;;;;;;;;;;;9.70;59.00;;;;;;6239746;23;20209;-89
2021/12/11 13:09:45;;;;;;;;;;;9.70;59.20;;;;;;6214774;23;19962;-89
2021/12/11 13:12:23;;;;;;;;;;;9.60;58.70;;;;;;6238851;23;19927;-90
2021/12/11 13:14:49;;;;;;;;;;;9.50;58.30;;;;;;6238767;23;19968;-89
2021/12/11 13:17:17;;;;;;;;;;;9.30;58.30;;;;;;6239381;22;20210;-89
2021/12/11 13:19:44;;;;;;;;;;;9.30;58.50;;;;;;6240027;23;19916;-90
2021/12/11 13:22:16;;;;;;;;;;;9.30;59.10;;;;;;6240117;23;20020;-91
2021/12/11 13:24:48;;;;;;;;;;;9.30;59.50;;;;;;6217027;23;19966;-88
2021/12/11 13:27:15;;;;;;;;;;;9.30;59.70;;;;;;6213100;23;19908;-89
2021/12/11 13:29:42;;;;;;;;;;;9.50;59.70;;;;;;6230572;23;19944;-90
2021/12/11 13:32:17;;;;;;;;;;;9.50;59.40;;;;;;6188317;23;19904;-89
2021/12/11 13:34:48;;;;;;;;;;;9.50;59.40;;;;;;6217673;23;19919;-91
2021/12/11 13:37:14;;;;;;;;;;;9.60;59.30;;;;;;6188991;23;20339;-90
2021/12/11 13:39:41;;;;;;;;;;;9.50;59.10;;;;;;6216586;23;19912;-90
2021/12/11 13:42:08;;;;;;;;;;;9.50;58.70;;;;;;6189522;23;19941;-92
2021/12/11 13:44:36;;;;;;;;;;;9.40;58.50;;;;;;6215972;23;19923;-90
2021/12/11 13:47:05;;;;;;;;;;;9.30;58.50;;;;;;6215068;23;19915;-90
2021/12/11 13:49:30;;;;;;;;;;;9.20;58.40;;;;;;6190361;23;19916;-92
2021/12/11 13:51:59;;;;;;;;;;;9.20;58.60;;;;;;6191009;23;19915;-90
2021/12/11 13:54:25;;;;;;;;;;;9.10;58.80;;;;;;6217838;23;20400;-91
2021/12/11 13:56:56;;;;;;;;;;;9.10;58.90;;;;;;6191398;23;19908;-91
2021/12/11 13:59:22;;;;;;;;;;;9.10;58.80;;;;;;6190535;23;19916;-90
2021/12/11 14:01:50;;;;;;;;;;;9.10;59.10;;;;;;6191474;23;19915;-91
2021/12/11 14:04:18;;;;;;;;;;;9.10;59.10;;;;;;6191680;23;19923;-90
2021/12/11 14:06:58;;;;;;;;;;;9.10;59.30;;;;;;6218390;23;20497;-90
2021/12/11 14:09:23;;;;;;;;;;;9.10;59.10;;;;;;6191328;23;20691;-89
2021/12/11 14:11:50;;;;;;;;;;;9.10;58.70;;;;;;6191222;23;19936;-92
2021/12/11 14:14:16;;;;;;;;;;;9.00;58.70;;;;;;6191923;23;19912;-88
2021/12/11 14:16:42;;;;;;;;;;;9.10;59.00;;;;;;6190337;23;19912;-90
2021/12/11 14:19:08;;;;;;;;;;;9.00;58.80;;;;;;6216266;23;19919;-90
2021/12/11 14:21:34;;;;;;;;;;;8.90;58.30;;;;;;6191713;23;19958;-91
2021/12/11 14:24:00;;;;;;;;;;;8.80;58.40;;;;;;6218650;23;20289;-91
2021/12/11 14:26:29;;;;;;;;;;;8.70;58.50;;;;;;6189586;23;19910;-91
2021/12/11 14:28:55;;;;;;;;;;;8.70;58.50;;;;;;6217417;23;19999;-91
2021/12/11 14:31:22;;;;;;;;;;;8.60;58.40;;;;;;6215759;23;19920;-91
2021/12/11 14:33:48;;;;;;;;;;;8.50;58.50;;;;;;6189863;23;19911;-91
2021/12/11 14:36:17;;;;;;;;;;;8.50;58.90;;;;;;6190742;23;20618;-91
2021/12/11 14:38:43;;;;;;;;;;;8.50;59.20;;;;;;6216939;23;19928;-91
2021/12/11 14:41:09;;;;;;;;;;;8.50;59.20;;;;;;6216706;23;19919;-91
2021/12/11 14:43:35;;;;;;;;;;;8.50;58.80;;;;;;6190584;23;19904;-91
2021/12/11 14:46:03;;;;;;;;;;;8.50;58.60;;;;;;6217904;23;19923;-92
2021/12/11 14:48:29;;;;;;;;;;;8.40;58.40;;;;;;6192257;23;20352;-91
2021/12/11 14:50:57;;;;;;;;;;;8.30;58.40;;;;;;6191174;23;19916;-91
2021/12/11 14:53:25;;;;;;;;;;;8.30;58.80;;;;;;6217877;23;19915;-92
2021/12/11 14:55:52;;;;;;;;;;;8.30;58.80;;;;;;6190993;23;19970;-91